Time;durP1;ratioP1;P1;durP2;ratioP2;P2;SDS_P1;SDS_P2;PMS_P1;PMS_P2;Temp;Humidity;BMP_temperature;BMP_pressure;BME280_temperature;BME280_humidity;BME280_pressure;Samples;Min_cycle;Max_cycle;Signal;HPM_P1;HPM_P2
2021/06/05 00:00:50;;;;;;;2.50;1.80;;;16.90;99.90;;;;;;5078274;28;20452;-92
2021/06/05 00:03:18;;;;;;;2.33;1.10;;;16.90;99.90;;;;;;5092052;28;20863;-91
2021/06/05 00:05:46;;;;;;;1.40;1.30;;;16.80;99.90;;;;;;5076918;28;20445;-90
2021/06/05 00:08:14;;;;;;;2.80;1.53;;;16.80;99.90;;;;;;5077798;28;20453;-91
2021/06/05 00:10:43;;;;;;;1.50;1.40;;;16.80;99.90;;;;;;5072369;28;20500;-91
2021/06/05 00:13:13;;;;;;;3.97;1.70;;;16.70;99.90;;;;;;5074069;28;20484;-93
2021/06/05 00:15:41;;;;;;;1.90;1.40;;;16.60;99.90;;;;;;5074516;28;20453;-92
2021/06/05 00:18:08;;;;;;;1.80;1.47;;;;;;;;;;5077443;28;21001;-92
2021/06/05 00:20:37;;;;;;;3.33;1.60;;;16.50;99.90;;;;;;5074067;28;20755;-90
2021/06/05 00:23:07;;;;;;;2.40;1.40;;;16.50;99.90;;;;;;5077043;28;20488;-90
2021/06/05 00:25:34;;;;;;;3.00;2.03;;;;;;;;;;5075752;28;20454;-92
2021/06/05 00:28:00;;;;;;;1.80;1.70;;;;;;;;;;5070600;28;20453;-95
2021/06/05 00:30:28;;;;;;;2.27;1.87;;;;;;;;;;5073551;28;20485;-91
2021/06/05 00:32:54;;;;;;;2.27;1.50;;;;;;;;;;5073504;28;20457;-91
2021/06/05 00:35:21;;;;;;;2.17;1.53;;;;;;;;;;5072428;28;20468;-91
2021/06/05 00:37:49;;;;;;;2.77;1.47;;;16.30;99.90;;;;;;5074033;28;20434;-93
2021/06/05 00:40:18;;;;;;;2.00;1.60;;;16.10;99.90;;;;;;5073825;28;20974;-89
2021/06/05 00:42:45;;;;;;;2.73;1.80;;;15.90;99.90;;;;;;5070055;28;20461;-91
2021/06/05 00:45:14;;;;;;;2.63;1.40;;;15.80;99.90;;;;;;5072128;28;20453;-92
2021/06/05 00:47:41;;;;;;;2.60;1.80;;;;;;;;;;5069488;28;20453;-92
2021/06/05 00:50:10;;;;;;;2.23;1.57;;;15.60;99.90;;;;;;5073850;28;20484;-88
2021/06/05 00:52:38;;;;;;;3.33;1.60;;;15.60;99.90;;;;;;5073130;28;20442;-89
2021/06/05 00:55:07;;;;;;;6.07;1.90;;;15.50;99.90;;;;;;5071911;28;20465;-91
2021/06/05 00:57:34;;;;;;;3.40;1.80;;;;;;;;;;5073690;28;20441;-91
2021/06/05 01:00:00;;;;;;;2.10;1.13;;;;;;;;;;5075857;28;20459;-91
2021/06/05 01:02:27;;;;;;;3.03;2.07;;;;;;;;;;5078217;28;20456;-92
2021/06/05 01:04:54;;;;;;;2.20;1.37;;;;;;;;;;5079038;28;20445;-91
2021/06/05 01:07:25;;;;;;;4.67;1.47;;;15.60;99.90;;;;;;5072721;28;21003;-90
2021/06/05 01:09:58;;;;;;;1.90;1.33;;;15.60;99.90;;;;;;5079843;28;20999;-91
2021/06/05 01:12:33;;;;;;;2.57;1.27;;;15.60;99.90;;;;;;5073694;28;20470;-90
2021/06/05 01:15:07;;;;;;;2.80;1.60;;;15.70;99.90;;;;;;5072293;28;20472;-90
2021/06/05 01:17:37;;;;;;;2.83;1.90;;;15.70;99.90;;;;;;5078610;28;20458;-88
2021/06/05 01:20:08;;;;;;;1.93;1.30;;;15.80;99.90;;;;;;5072786;28;20461;-90
2021/06/05 01:22:55;;;;;;;6.30;2.43;;;15.80;99.90;;;;;;5077117;28;20496;-90
2021/06/05 01:25:37;;;;;;;1.50;1.20;;;15.40;99.90;;;;;;5079220;28;20440;-89
2021/06/05 01:28:08;;;;;;;3.23;1.30;;;15.70;99.90;;;;;;5074484;28;20460;-86
2021/06/05 01:30:38;;;;;;;2.13;1.70;;;15.80;99.90;;;;;;5075191;28;20477;-89
2021/06/05 01:33:04;;;;;;;1.43;1.17;;;16.10;99.90;;;;;;5077842;28;20441;-88
2021/06/05 01:35:33;;;;;;;1.77;1.30;;;16.00;99.90;;;;;;5080406;28;21000;-85
2021/06/05 01:38:02;;;;;;;2.73;1.30;;;16.00;99.90;;;;;;5083753;28;20434;-86
2021/06/05 01:40:29;;;;;;;1.20;1.10;;;;;;;;;;5076727;28;20441;-87
2021/06/05 01:43:00;;;;;;;4.30;1.70;;;16.10;99.90;;;;;;5077331;28;20448;-89
2021/06/05 01:45:30;;;;;;;1.43;1.33;;;16.10;99.90;;;;;;5077203;28;20450;-93
2021/06/05 01:47:57;;;;;;;1.80;1.53;;;15.80;99.90;;;;;;5076211;28;20507;-87
2021/06/05 01:50:27;;;;;;;1.67;1.20;;;16.00;99.90;;;;;;5075031;28;20489;-90
2021/06/05 01:52:57;;;;;;;1.30;0.90;;;15.90;99.90;;;;;;5076642;28;20450;-92
2021/06/05 01:55:30;;;;;;;2.20;1.13;;;16.20;99.90;;;;;;5077623;28;20460;-90
2021/06/05 01:58:03;;;;;;;2.07;1.30;;;15.80;99.90;;;;;;5077920;28;20812;-87
2021/06/05 02:00:32;;;;;;;1.27;1.10;;;16.00;99.90;;;;;;5076216;28;20955;-89
2021/06/05 02:03:00;;;;;;;2.70;1.23;;;15.90;99.90;;;;;;5076645;28;20450;-89
2021/06/05 02:05:30;;;;;;;1.20;0.87;;;16.20;99.90;;;;;;5075563;28;20515;-88
2021/06/05 02:07:58;;;;;;;1.70;1.40;;;16.00;99.90;;;;;;5078326;28;20457;-88
2021/06/05 02:10:26;;;;;;;2.13;1.10;;;16.00;99.90;;;;;;5077622;28;20474;-92
2021/06/05 02:12:54;;;;;;;1.20;1.10;;;15.80;99.90;;;;;;5075544;28;20446;-88
2021/06/05 02:15:29;;;;;;;0.87;0.87;;;16.00;99.90;;;;;;5079425;28;20449;-86
2021/06/05 02:17:59;;;;;;;1.13;0.93;;;16.00;99.90;;;;;;5072060;28;20440;-89
2021/06/05 02:20:29;;;;;;;1.50;1.33;;;16.00;99.90;;;;;;5071514;28;20452;-93
2021/06/05 02:22:58;;;;;;;3.07;1.50;;;15.80;99.90;;;;;;5077067;28;20470;-94
2021/06/05 02:25:26;;;;;;;2.27;1.10;;;15.90;99.90;;;;;;5080254;23;20489;-86
2021/06/05 02:27:55;;;;;;;3.30;1.00;;;16.10;99.90;;;;;;5079475;28;20450;-89
2021/06/05 02:30:24;;;;;;;1.90;1.20;;;15.70;99.90;;;;;;5079190;28;20469;-87
2021/06/05 02:32:51;;;;;;;2.23;1.43;;;;;;;;;;5081043;28;20454;-91
2021/06/05 02:35:26;;;;;;;1.33;1.10;;;15.90;99.90;;;;;;5080572;28;20450;-91
2021/06/05 02:37:52;;;;;;;1.73;1.60;;;16.20;99.90;;;;;;5082710;28;20445;-90
2021/06/05 02:40:26;;;;;;;1.13;0.87;;;16.00;99.90;;;;;;5078095;28;20441;-88
2021/06/05 02:42:56;;;;;;;1.50;1.40;;;16.00;99.90;;;;;;5077975;28;20457;-90
2021/06/05 02:45:29;;;;;;;1.30;1.00;;;16.10;99.90;;;;;;5076064;28;20458;-88
2021/06/05 02:47:57;;;;;;;6.37;1.40;;;16.10;99.90;;;;;;5076650;28;20468;-91
2021/06/05 02:50:30;;;;;;;1.70;1.40;;;16.20;99.90;;;;;;5076072;28;20492;-90
2021/06/05 02:52:57;;;;;;;3.03;1.30;;;;;;;;;;5078667;28;20496;-89
2021/06/05 02:55:24;;;;;;;1.40;1.30;;;;;;;;;;5076730;28;20944;-89
2021/06/05 02:57:51;;;;;;;1.80;1.10;;;16.00;99.90;;;;;;5076605;28;20437;-86
2021/06/05 03:00:21;;;;;;;2.13;1.37;;;16.20;99.90;;;;;;5078174;28;20456;-89
2021/06/05 03:02:48;;;;;;;3.30;1.40;;;16.20;99.90;;;;;;5076906;28;20438;-88
2021/06/05 03:05:15;;;;;;;2.20;0.90;;;;;;;;;;5075529;28;20442;-88
2021/06/05 03:07:42;;;;;;;2.70;0.97;;;;;;;;;;5079784;28;20422;-89
2021/06/05 03:10:10;;;;;;;1.63;1.00;;;16.30;99.90;;;;;;5085895;28;20491;-90
2021/06/05 03:12:38;;;;;;;1.00;0.70;;;16.60;99.90;;;;;;5075573;28;20450;-88
2021/06/05 03:15:06;;;;;;;1.00;0.90;;;16.40;99.90;;;;;;5076090;28;20449;-88
2021/06/05 03:17:33;;;;;;;1.23;0.83;;;;;;;;;;5042103;28;20434;-88
2021/06/05 03:20:01;;;;;;;2.90;1.50;;;16.30;99.90;;;;;;5077687;28;20453;-91
2021/06/05 03:22:28;;;;;;;2.70;1.10;;;;;;;;;;5076570;28;20843;-91
2021/06/05 03:24:54;;;;;;;3.07;1.00;;;;;;;;;;5071777;28;20999;-89
2021/06/05 03:27:21;;;;;;;2.00;1.30;;;;;;;;;;5076624;28;20446;-90
2021/06/05 03:29:48;;;;;;;2.70;1.30;;;;;;;;;;5076101;28;20452;-91
2021/06/05 03:32:15;;;;;;;1.23;1.13;;;;;;;;;;5077539;28;20457;-88
2021/06/05 03:34:41;;;;;;;1.03;0.93;;;;;;;;;;5077942;28;20453;-87
2021/06/05 03:37:10;;;;;;;3.13;1.00;;;16.00;99.90;;;;;;5078582;28;20450;-91
2021/06/05 03:39:36;;;;;;;1.17;0.80;;;16.50;99.90;;;;;;5078218;28;20465;-90
2021/06/05 03:42:03;;;;;;;1.83;1.20;;;16.10;99.90;;;;;;5078466;28;20441;-89
2021/06/05 03:44:30;;;;;;;2.27;1.43;;;;;;;;;;5031454;28;20493;-88
2021/06/05 03:46:56;;;;;;;2.40;1.00;;;;;;;;;;5081016;28;20438;-87
2021/06/05 03:49:23;;;;;;;3.53;0.83;;;;;;;;;;5077955;28;20450;-89
2021/06/05 03:51:50;;;;;;;1.37;1.27;;;;;;;;;;5080483;28;20496;-90
2021/06/05 03:54:18;;;;;;;3.13;1.53;;;16.50;99.90;;;;;;5079664;28;20471;-86
2021/06/05 03:56:44;;;;;;;4.87;1.20;;;;;;;;;;5078463;28;20450;-93
2021/06/05 03:59:11;;;;;;;2.33;0.87;;;;;;;;;;5076441;28;20480;-86
2021/06/05 04:01:38;;;;;;;1.70;1.20;;;;;;;;;;5078798;28;20460;-89
2021/06/05 04:04:05;;;;;;;2.47;1.10;;;;;;;;;;5075279;28;20448;-91
2021/06/05 04:06:32;;;;;;;2.80;1.40;;;;;;;;;;5075510;28;20458;-91
2021/06/05 04:08:58;;;;;;;2.50;1.30;;;;;;;;;;5077013;28;20960;-90
2021/06/05 04:11:29;;;;;;;1.70;1.10;;;16.40;99.90;;;;;;5070954;28;20481;-93
2021/06/05 04:13:55;;;;;;;2.17;1.17;;;;;;;;;;5070725;28;20473;-90
2021/06/05 04:16:23;;;;;;;6.43;1.50;;;;;;;;;;5074030;28;20453;-92
2021/06/05 04:18:50;;;;;;;1.80;1.23;;;;;;;;;;5073994;28;20540;-93
2021/06/05 04:21:19;;;;;;;1.33;1.20;;;16.50;99.90;;;;;;5072844;28;20438;-94
2021/06/05 04:23:46;;;;;;;2.33;1.37;;;;;;;;;;5073507;28;20476;-91
2021/06/05 04:26:12;;;;;;;2.20;1.50;;;;;;;;;;5072821;28;20530;-90
2021/06/05 04:28:40;;;;;;;6.13;1.77;;;16.30;99.90;;;;;;5073651;28;20448;-91
2021/06/05 04:31:08;;;;;;;2.77;1.57;;;16.50;99.90;;;;;;5069212;28;20493;-91
2021/06/05 04:33:35;;;;;;;2.50;1.30;;;;;;;;;;5074082;28;20507;-92
2021/06/05 04:36:05;;;;;;;2.87;1.67;;;16.40;99.90;;;;;;5073262;28;20453;-90
2021/06/05 04:38:32;;;;;;;2.80;1.13;;;;;;;;;;5077276;28;20441;-93
2021/06/05 04:40:59;;;;;;;1.17;1.07;;;;;;;;;;5089887;28;20439;-89
2021/06/05 04:43:25;;;;;;;4.07;1.30;;;;;;;;;;5083049;28;20446;-91
2021/06/05 04:45:53;;;;;;;2.40;1.10;;;16.70;99.90;;;;;;5076988;28;20491;-92
2021/06/05 04:48:20;;;;;;;1.90;1.30;;;;;;;;;;5076547;28;20444;-88
2021/06/05 04:50:46;;;;;;;2.47;1.40;;;;;;;;;;5074849;28;21059;-88
2021/06/05 04:53:13;;;;;;;3.57;1.50;;;16.60;99.90;;;;;;5076079;28;21006;-89
2021/06/05 04:55:40;;;;;;;1.27;1.13;;;;;;;;;;5076056;28;20781;-89
2021/06/05 04:58:07;;;;;;;7.60;1.73;;;16.50;99.90;;;;;;5075410;28;20441;-89
2021/06/05 05:00:35;;;;;;;3.60;1.60;;;16.50;99.90;;;;;;5077779;28;21046;-89
2021/06/05 05:03:07;;;;;;;2.13;1.30;;;16.30;99.90;;;;;;5081111;28;20442;-92
2021/06/05 05:05:37;;;;;;;3.63;1.33;;;;;;;;;;5085862;28;20437;-94
2021/06/05 05:08:23;;;;;;;2.20;1.00;;;16.80;99.90;;;;;;5087481;28;20441;-90
2021/06/05 05:10:55;;;;;;;5.13;1.40;;;16.60;99.90;;;;;;5081360;28;20484;-89
2021/06/05 05:13:27;;;;;;;2.27;1.37;;;16.60;99.90;;;;;;5063518;28;20773;-90
2021/06/05 05:15:57;;;;;;;2.23;1.70;;;;;;;;;;5063148;28;20816;-91
2021/06/05 05:18:27;;;;;;;1.37;1.03;;;16.70;99.90;;;;;;5065573;28;20446;-91
2021/06/05 05:20:58;;;;;;;2.10;1.30;;;16.80;99.90;;;;;;5063987;28;20436;-89
2021/06/05 05:23:29;;;;;;;3.47;1.43;;;16.90;99.90;;;;;;5064092;28;20485;-89
2021/06/05 05:26:02;;;;;;;6.93;1.47;;;16.90;99.90;;;;;;5073333;28;20470;-89
2021/06/05 05:28:30;;;;;;;1.60;1.20;;;17.00;99.90;;;;;;5075086;28;20488;-91
2021/06/05 05:31:07;;;;;;;3.23;0.90;;;17.10;99.90;;;;;;5069971;28;20477;-89
2021/06/05 05:33:40;;;;;;;2.60;1.30;;;;;;;;;;5076078;28;20446;-91
2021/06/05 05:36:14;;;;;;;4.93;1.93;;;17.30;99.90;;;;;;5082626;28;20521;-92
2021/06/05 05:38:45;;;;;;;1.33;1.23;;;17.40;99.90;;;;;;5075520;28;20452;-93
2021/06/05 05:41:17;;;;;;;3.60;1.70;;;17.60;99.90;;;;;;5075364;28;20787;-89
2021/06/05 05:43:48;;;;;;;2.40;1.30;;;;;;;;;;5075021;28;20502;-94
2021/06/05 05:46:16;;;;;;;2.00;1.27;;;;;;;;;;5073310;28;20438;-88
2021/06/05 05:48:44;;;;;;;3.70;1.33;;;;;;;;;;5070615;28;20481;-89
2021/06/05 05:51:13;;;;;;;1.37;1.27;;;18.50;99.90;;;;;;5072514;28;20519;-85
2021/06/05 05:53:40;;;;;;;2.00;1.80;;;;;;;;;;5074500;28;20450;-90
2021/06/05 05:56:08;;;;;;;3.23;1.40;;;18.70;99.90;;;;;;5075672;28;20449;-91
2021/06/05 05:58:36;;;;;;;1.10;1.00;;;18.70;99.90;;;;;;5071231;28;20450;-92
2021/06/05 06:01:03;;;;;;;1.10;0.90;;;;;;;;;;5075326;28;20448;-90
2021/06/05 06:03:30;;;;;;;1.80;1.03;;;18.20;99.90;;;;;;5075287;28;20450;-91
2021/06/05 06:05:58;;;;;;;2.10;1.37;;;18.10;99.90;;;;;;5066211;28;20511;-89
2021/06/05 06:08:24;;;;;;;1.93;1.27;;;;;;;;;;5069709;28;20445;-90
2021/06/05 06:10:54;;;;;;;1.80;1.10;;;17.90;99.90;;;;;;5075958;28;20473;-90
2021/06/05 06:13:21;;;;;;;1.80;1.40;;;;;;;;;;5091500;28;20452;-90
2021/06/05 06:15:48;;;;;;;1.30;1.20;;;;;;;;;;5081511;28;20438;-89
2021/06/05 06:18:15;;;;;;;3.43;1.13;;;18.00;99.90;;;;;;5074924;28;20454;-89
2021/06/05 06:20:44;;;;;;;1.93;1.30;;;18.20;99.90;;;;;;5071087;28;20450;-91
2021/06/05 06:23:13;;;;;;;1.30;1.20;;;18.30;99.90;;;;;;5072200;28;20437;-88
2021/06/05 06:25:40;;;;;;;1.10;1.00;;;;;;;;;;5074319;28;20475;-93
2021/06/05 06:28:08;;;;;;;1.20;1.10;;;18.20;99.90;;;;;;5075593;28;20441;-90
2021/06/05 06:30:36;;;;;;;1.63;1.40;;;18.00;99.90;;;;;;5075429;28;20493;-91
2021/06/05 06:33:04;;;;;;;3.03;1.43;;;18.20;99.90;;;;;;5070920;28;20785;-91
2021/06/05 06:35:32;;;;;;;1.60;1.10;;;18.20;99.90;;;;;;5073343;28;20804;-87
2021/06/05 06:37:59;;;;;;;3.63;1.13;;;;;;;;;;5070586;28;20442;-90
2021/06/05 06:40:30;;;;;;;1.40;1.20;;;18.40;99.90;;;;;;5073957;28;20856;-88
2021/06/05 06:42:57;;;;;;;1.27;0.87;;;;;;;;;;5073029;28;20817;-86
2021/06/05 06:45:24;;;;;;;2.30;0.83;;;;;;;;;;5072572;28;20449;-85
2021/06/05 06:47:51;;;;;;;1.77;1.30;;;18.40;99.90;;;;;;5072730;28;20437;-84
2021/06/05 06:50:19;;;;;;;1.90;1.07;;;18.60;99.90;;;;;;5072388;28;20955;-85
2021/06/05 06:52:46;;;;;;;2.50;1.20;;;;;;;;;;5073052;28;20442;-86
2021/06/05 06:55:13;;;;;;;3.23;1.90;;;;;;;;;;5073467;28;20450;-84
2021/06/05 06:57:40;;;;;;;1.30;1.20;;;19.00;99.90;;;;;;5076176;28;20446;-91
2021/06/05 07:00:10;;;;;;;2.00;1.10;;;19.10;99.90;;;;;;5075325;28;20495;-85
2021/06/05 07:02:37;;;;;;;3.40;1.37;;;;;;;;;;5073074;28;20475;-87
2021/06/05 07:05:04;;;;;;;1.30;1.20;;;19.50;99.90;;;;;;5074596;28;20437;-93
2021/06/05 07:07:31;;;;;;;2.00;1.17;;;19.60;99.90;;;;;;5070879;28;20446;-85
2021/06/05 07:09:58;;;;;;;3.13;1.53;;;;;;;;;;5069561;28;20446;-88
2021/06/05 07:12:24;;;;;;;1.90;0.80;;;;;;;;;;5073245;28;20990;-88
2021/06/05 07:14:52;;;;;;;1.20;1.00;;;20.30;99.90;;;;;;5072765;28;20442;-90
2021/06/05 07:17:19;;;;;;;1.63;1.40;;;;;;;;;;5075159;28;20475;-87
2021/06/05 07:19:46;;;;;;;1.63;0.80;;;;;;;;;;5069215;28;20443;-91
2021/06/05 07:22:12;;;;;;;5.30;1.40;;;;;;;;;;5067014;28;20933;-96
2021/06/05 07:24:39;;;;;;;3.20;1.20;;;;;;;;;;5079308;28;20477;-94
2021/06/05 07:27:06;;;;;;;1.47;1.03;;;20.50;99.90;;;;;;5067566;28;20453;-86
2021/06/05 07:29:33;;;;;;;2.50;0.90;;;;;;;;;;5061909;28;20454;-89
2021/06/05 07:32:02;;;;;;;2.90;1.43;;;20.20;99.90;;;;;;5062404;28;20493;-92
2021/06/05 07:34:29;;;;;;;1.57;1.10;;;;;;;;;;5065007;28;20450;-85
2021/06/05 07:36:57;;;;;;;1.40;1.30;;;19.90;99.90;;;;;;5060912;28;20438;-85
2021/06/05 07:39:25;;;;;;;3.23;1.07;;;19.80;99.90;;;;;;5073755;28;20469;-85
2021/06/05 07:41:52;;;;;;;1.20;1.10;;;;;;;;;;5070704;28;20456;-91
2021/06/05 07:44:20;;;;;;;1.70;1.23;;;19.80;99.90;;;;;;5083556;28;20453;-85
2021/06/05 07:46:50;;;;;;;1.70;1.33;;;19.60;99.90;;;;;;5079689;28;20444;-86
2021/06/05 07:49:18;;;;;;;2.47;1.23;;;19.70;99.90;;;;;;5074716;28;20449;-86
2021/06/05 07:51:45;;;;;;;1.77;1.33;;;19.50;99.90;;;;;;5074209;28;20546;-86
2021/06/05 07:54:12;;;;;;;2.30;1.33;;;;;;;;;;5075101;28;20819;-85
2021/06/05 07:56:39;;;;;;;1.80;1.40;;;;;;;;;;5076471;28;20438;-93
2021/06/05 07:59:08;;;;;;;1.63;1.33;;;19.30;99.90;;;;;;5078878;28;20467;-86
2021/06/05 08:01:34;;;;;;;1.93;1.20;;;;;;;;;;5079176;28;20493;-85
2021/06/05 08:04:01;;;;;;;1.20;1.10;;;;;;;;;;5077701;28;20450;-87
2021/06/05 08:06:29;;;;;;;1.40;1.30;;;19.40;99.90;;;;;;5075966;28;20438;-86
2021/06/05 08:08:55;;;;;;;2.70;1.30;;;19.10;99.90;;;;;;5078293;28;20522;-89
2021/06/05 08:11:22;;;;;;;2.80;1.60;;;;;;;;;;5078778;28;20458;-86
2021/06/05 08:13:49;;;;;;;1.70;1.50;;;;;;;;;;5078593;28;20472;-87
2021/06/05 08:16:15;;;;;;;3.60;1.10;;;;;;;;;;5080145;28;20449;-91
2021/06/05 08:18:42;;;;;;;5.57;0.90;;;;;;;;;;5085508;28;20449;-91
2021/06/05 08:21:12;;;;;;;1.23;1.00;;;19.00;99.90;;;;;;5083477;28;20484;-88
2021/06/05 08:23:40;;;;;;;5.07;1.67;;;19.10;99.90;;;;;;5081325;28;20437;-90
2021/06/05 08:26:09;;;;;;;1.17;1.07;;;19.00;99.90;;;;;;5079666;28;20484;-88
2021/06/05 08:28:36;;;;;;;2.10;1.30;;;;;;;;;;5082278;28;20476;-86
2021/06/05 08:31:07;;;;;;;1.10;1.00;;;19.10;99.90;;;;;;5077481;28;20453;-88
2021/06/05 08:33:33;;;;;;;1.47;1.37;;;;;;;;;;5077959;28;20790;-87
2021/06/05 08:36:00;;;;;;;1.87;1.20;;;;;;;;;;5081243;28;20445;-89
2021/06/05 08:38:29;;;;;;;2.17;1.40;;;19.70;99.90;;;;;;5087503;28;20861;-90
2021/06/05 08:41:01;;;;;;;1.63;1.53;;;19.50;99.90;;;;;;5087559;28;20492;-91
2021/06/05 08:43:33;;;;;;;1.17;0.90;;;19.70;99.90;;;;;;5083557;28;20449;-94
2021/06/05 08:46:01;;;;;;;1.20;1.07;;;19.80;99.90;;;;;;5084583;28;20504;-91
2021/06/05 08:48:28;;;;;;;4.40;1.27;;;;;;;;;;5085733;28;20445;-93
2021/06/05 08:51:07;;;;;;;1.87;1.20;;;20.00;99.90;;;;;;5084738;28;20444;-91
2021/06/05 08:53:35;;;;;;;1.50;1.10;;;19.70;99.90;;;;;;5083551;28;20438;-93
2021/06/05 08:56:06;;;;;;;2.10;1.17;;;19.90;99.90;;;;;;5084433;28;20456;-88
2021/06/05 08:58:35;;;;;;;1.83;1.20;;;19.90;99.90;;;;;;5080323;28;20449;-89
2021/06/05 09:01:06;;;;;;;2.93;1.20;;;19.80;99.90;;;;;;5076798;28;20503;-93
2021/06/05 09:03:36;;;;;;;3.60;1.30;;;20.10;99.90;;;;;;5079084;28;20438;-92
2021/06/05 09:06:06;;;;;;;1.80;1.30;;;20.00;99.90;;;;;;5080704;28;20430;-94
2021/06/05 09:08:33;;;;;;;1.40;1.30;;;;;;;;;;5086218;28;20452;-89
2021/06/05 09:11:03;;;;;;;1.40;1.30;;;20.10;99.90;;;;;;5081028;28;20449;-93
2021/06/05 09:13:30;;;;;;;1.43;1.30;;;;;;;;;;5080915;28;20785;-91
2021/06/05 09:16:24;;;;;;;2.70;1.27;;;20.10;99.90;;;;;;5092643;28;20426;-86
2021/06/05 09:18:53;;;;;;;1.57;1.07;;;20.20;99.90;;;;;;5089663;28;20870;-92
2021/06/05 09:21:27;;;;;;;2.70;1.53;;;20.30;99.90;;;;;;5083125;28;20477;-92
2021/06/05 09:23:54;;;;;;;1.20;1.10;;;;;;;;;;5079728;28;20452;-94
2021/06/05 09:26:24;;;;;;;1.73;1.60;;;20.20;99.90;;;;;;5078694;28;20481;-89
2021/06/05 09:29:08;;;;;;;2.17;1.10;;;20.50;99.90;;;;;;5078222;28;20453;-86
2021/06/05 09:31:49;;;;;;;1.20;1.10;;;20.80;99.90;;;;;;5077163;28;20449;-86
2021/06/05 09:34:15;;;;;;;1.37;0.90;;;;;;;;;;5076852;28;20449;-87
2021/06/05 09:36:42;;;;;;;3.00;1.50;;;;;;;;;;5077403;28;20442;-86
2021/06/05 09:39:13;;;;;;;1.57;1.10;;;21.80;99.90;;;;;;5078810;28;20965;-85
2021/06/05 09:41:44;;;;;;;1.50;1.00;;;21.20;99.90;;;;;;5076845;28;21062;-93
2021/06/05 09:44:15;;;;;;;3.60;1.23;;;21.30;99.90;;;;;;5076683;28;20511;-86
2021/06/05 09:46:53;;;;;;;3.53;1.20;;;20.90;99.90;;;;;;5078822;28;20485;-93
2021/06/05 09:49:25;;;;;;;3.80;1.50;;;21.10;99.90;;;;;;5076787;28;20452;-88
2021/06/05 09:52:08;;;;;;;1.50;1.20;;;20.80;99.90;;;;;;5075763;28;20441;-87
2021/06/05 09:54:37;;;;;;;5.37;1.37;;;20.70;99.90;;;;;;5076042;28;20896;-86
2021/06/05 09:57:24;;;;;;;1.03;0.93;;;20.50;99.90;;;;;;5082493;28;20437;-88
2021/06/05 10:00:06;;;;;;;2.27;1.40;;;20.30;99.90;;;;;;5077845;28;20503;-91
2021/06/05 10:02:34;;;;;;;1.97;1.17;;;20.40;99.90;;;;;;5075041;28;20752;-86
2021/06/05 10:05:28;;;;;;;1.40;1.20;;;20.80;99.90;;;;;;5075037;28;20472;-90
2021/06/05 10:07:55;;;;;;;1.77;1.07;;;20.30;99.90;;;;;;5076615;28;20446;-91
2021/06/05 10:10:34;;;;;;;2.07;1.30;;;20.20;99.90;;;;;;5078090;28;20503;-86
2021/06/05 10:13:06;;;;;;;2.60;1.47;;;20.00;99.90;;;;;;5078456;28;20430;-89
2021/06/05 10:15:37;;;;;;;5.30;1.73;;;20.00;99.90;;;;;;5083513;28;21083;-91
2021/06/05 10:18:09;;;;;;;3.40;1.23;;;19.80;99.90;;;;;;5078736;28;20446;-91
2021/06/05 10:20:46;;;;;;;1.60;1.50;;;19.80;99.90;;;;;;5075424;28;20494;-90
2021/06/05 10:23:14;;;;;;;1.90;1.70;;;19.70;99.90;;;;;;5084778;28;20442;-86
2021/06/05 10:25:44;;;;;;;3.50;1.50;;;19.60;99.90;;;;;;5079856;28;20564;-89
2021/06/05 10:28:16;;;;;;;2.30;1.37;;;19.40;99.90;;;;;;5077579;28;20473;-86
2021/06/05 10:30:52;;;;;;;1.97;1.10;;;19.80;99.90;;;;;;5082463;28;20468;-86
2021/06/05 10:33:31;;;;;;;1.47;0.80;;;19.60;99.90;;;;;;5077910;28;20851;-90
2021/06/05 10:35:59;;;;;;;1.30;1.20;;;19.50;99.90;;;;;;5075096;28;20445;-87
2021/06/05 10:38:35;;;;;;;3.70;1.70;;;19.30;99.90;;;;;;5075848;28;20450;-88
2021/06/05 10:41:01;;;;;;;2.53;1.40;;;;;;;;;;5074449;28;20485;-86
2021/06/05 10:43:29;;;;;;;1.50;1.40;;;19.50;99.90;;;;;;5079847;28;20511;-87
2021/06/05 10:45:57;;;;;;;1.77;1.43;;;;;;;;;;5076122;28;20454;-89
2021/06/05 10:48:28;;;;;;;8.53;1.83;;;19.10;99.90;;;;;;5087157;28;20449;-87
2021/06/05 10:51:04;;;;;;;4.50;1.50;;;19.20;99.90;;;;;;5073394;28;20502;-87
2021/06/05 10:53:35;;;;;;;1.73;1.50;;;19.60;99.90;;;;;;5074879;28;20539;-87
2021/06/05 10:56:11;;;;;;;1.90;1.70;;;19.30;99.90;;;;;;5072951;28;20450;-90
2021/06/05 10:58:46;;;;;;;1.30;1.20;;;19.40;99.90;;;;;;5075359;28;20940;-89
2021/06/05 11:01:35;;;;;;;2.17;1.67;;;19.50;99.90;;;;;;5078259;28;20484;-95
2021/06/05 11:04:03;;;;;;;1.60;1.00;;;19.60;99.90;;;;;;5079100;28;20448;-89
2021/06/05 11:06:40;;;;;;;2.90;1.37;;;19.70;99.90;;;;;;5082320;28;20445;-88
2021/06/05 11:09:38;;;;;;;2.50;1.37;;;20.10;99.90;;;;;;5084353;28;20441;-89
2021/06/05 11:12:43;;;;;;;1.83;1.33;;;19.70;99.90;;;;;;5068278;28;20453;-88
2021/06/05 11:15:34;;;;;;;2.27;1.40;;;20.10;99.90;;;;;;5082532;28;20445;-90
2021/06/05 11:18:28;;;;;;;3.40;1.40;;;19.70;99.90;;;;;;5085747;28;20462;-88
2021/06/05 11:20:55;;;;;;;2.33;1.47;;;;;;;;;;5075455;28;20457;-87
2021/06/05 11:23:27;;;;;;;1.97;1.50;;;21.20;99.90;;;;;;5076448;28;20460;-87
2021/06/05 11:25:56;;;;;;;1.73;1.63;;;21.40;99.90;;;;;;5075219;28;20528;-87
2021/06/05 11:28:46;;;;;;;2.47;1.53;;;21.60;99.90;;;;;;5073656;28;20453;-89
2021/06/05 11:31:47;;;;;;;4.83;1.40;;;21.80;99.90;;;;;;5070568;28;20795;-93
2021/06/05 11:34:52;;;;;;;2.27;1.30;;;22.20;99.90;;;;;;5066664;28;20466;-92
2021/06/05 11:37:52;;;;;;;1.70;1.40;;;21.50;99.90;;;;;;5032066;28;20466;-88
2021/06/05 11:40:58;;;;;;;3.20;1.93;;;21.50;99.90;;;;;;5072883;28;20459;-87
2021/06/05 11:44:02;;;;;;;3.60;1.40;;;21.20;99.90;;;;;;5075484;28;20452;-86
2021/06/05 11:46:49;;;;;;;2.53;1.50;;;21.20;99.90;;;;;;5070237;28;20457;-87
2021/06/05 11:49:54;;;;;;;3.53;1.50;;;21.80;99.90;;;;;;5076311;28;20441;-87
2021/06/05 11:52:42;;;;;;;1.97;1.80;;;20.80;99.90;;;;;;5071449;28;20510;-87
2021/06/05 11:55:39;;;;;;;1.90;1.80;;;21.00;99.90;;;;;;5075088;28;20452;-87
2021/06/05 11:58:11;;;;;;;3.10;1.57;;;21.00;99.90;;;;;;5053623;28;20453;-88
2021/06/05 12:00:39;;;;;;;1.47;1.33;;;20.90;99.90;;;;;;5074240;28;20450;-86
2021/06/05 12:03:10;;;;;;;1.27;1.17;;;21.00;99.90;;;;;;5073597;28;20497;-91
2021/06/05 12:05:38;;;;;;;2.87;1.30;;;21.30;99.90;;;;;;5070079;28;20442;-90
2021/06/05 12:08:29;;;;;;;1.13;1.03;;;21.90;99.90;;;;;;5074547;28;20491;-90
2021/06/05 12:10:57;;;;;;;4.97;1.23;;;21.30;99.90;;;;;;5063388;28;20449;-86
2021/06/05 12:13:29;;;;;;;1.50;1.40;;;21.50;99.90;;;;;;5075575;28;20503;-87
2021/06/05 12:16:05;;;;;;;2.30;1.40;;;21.30;99.90;;;;;;5072878;28;20811;-87
2021/06/05 12:18:33;;;;;;;2.00;1.27;;;21.30;99.90;;;;;;5074543;28;20449;-89
2021/06/05 12:21:03;;;;;;;1.20;1.00;;;21.30;99.90;;;;;;5074848;28;20452;-86
2021/06/05 12:23:34;;;;;;;1.40;1.30;;;21.50;99.90;;;;;;5069725;28;20533;-86
2021/06/05 12:26:04;;;;;;;1.37;0.90;;;21.70;99.90;;;;;;5069370;28;20478;-86
2021/06/05 12:28:32;;;;;;;2.23;0.80;;;22.30;99.90;;;;;;5073321;28;20453;-88
2021/06/05 12:31:14;;;;;;;2.30;1.27;;;23.10;99.90;;;;;;5074459;28;20811;-87
2021/06/05 12:33:43;;;;;;;1.20;0.80;;;23.00;99.90;;;;;;5067459;28;20438;-85
2021/06/05 12:36:18;;;;;;;1.43;1.00;;;22.50;99.90;;;;;;5075045;28;20454;-92
2021/06/05 12:38:49;;;;;;;0.93;0.70;;;;;;;;;;5081390;28;20449;-88
2021/06/05 12:41:21;;;;;;;1.13;0.80;;;22.20;99.90;;;;;;5078709;28;20493;-89
2021/06/05 12:43:47;;;;;;;1.23;0.93;;;;;;;;;;5077525;28;20471;-89
2021/06/05 12:46:19;;;;;;;2.50;1.00;;;22.00;99.90;;;;;;5081385;28;20450;-93
2021/06/05 12:48:48;;;;;;;1.60;0.80;;;22.40;99.90;;;;;;5075589;28;20990;-87
2021/06/05 12:51:20;;;;;;;1.10;1.00;;;22.20;99.90;;;;;;5079076;28;20456;-94
2021/06/05 12:53:57;;;;;;;2.07;1.03;;;22.40;99.90;;;;;;5076066;28;20887;-92
2021/06/05 12:56:36;;;;;;;1.47;0.97;;;21.70;99.90;;;;;;5080013;28;20440;-87
2021/06/05 12:59:06;;;;;;;1.00;0.90;;;21.80;99.90;;;;;;5083054;28;20453;-92
2021/06/05 13:01:38;;;;;;;0.73;0.73;;;21.40;99.90;;;;;;5080075;28;20485;-90
2021/06/05 13:04:23;;;;;;;1.80;0.67;;;21.80;99.90;;;;;;5076365;28;20519;-85
2021/06/05 13:06:57;;;;;;;1.70;0.80;;;22.30;99.90;;;;;;5076423;28;20446;-90
2021/06/05 13:09:27;;;;;;;2.50;1.03;;;22.10;99.90;;;;;;5076597;28;20453;-89
2021/06/05 13:11:56;;;;;;;0.83;0.60;;;21.60;99.90;;;;;;5075930;28;20434;-85
2021/06/05 13:14:34;;;;;;;0.70;0.60;;;22.00;99.90;;;;;;5079421;28;20445;-85
2021/06/05 13:17:26;;;;;;;0.77;0.70;;;22.40;99.90;;;;;;5076389;28;20442;-85
2021/06/05 13:20:20;;;;;;;1.67;0.87;;;22.30;99.90;;;;;;5077476;28;20928;-89
2021/06/05 13:22:47;;;;;;;0.90;0.90;;;;;;;;;;5076095;28;20516;-85
2021/06/05 13:25:26;;;;;;;0.80;0.73;;;23.20;99.90;;;;;;5081836;28;20477;-86
2021/06/05 13:28:15;;;;;;;1.20;1.10;;;22.30;99.90;;;;;;5078525;28;20453;-85
2021/06/05 13:30:45;;;;;;;2.20;0.70;;;22.00;99.90;;;;;;5083295;28;20480;-92
2021/06/05 13:33:37;;;;;;;0.80;0.80;;;21.70;99.90;;;;;;5082927;28;20449;-91
2021/06/05 13:36:09;;;;;;;1.10;0.80;;;21.70;99.90;;;;;;5085741;23;20497;-93
2021/06/05 13:38:54;;;;;;;3.23;0.80;;;21.50;99.90;;;;;;5078346;28;20440;-93